sensor_id;sensor_type;location;lat;lon;timestamp;pressure;altitude;pressure_sealevel;temperature;humidity
11124;BME280;5616;42.692;23.312;2024-03-22T00:01:55;95348.72;;;9.48;40.50
11124;BME280;5616;42.692;23.312;2024-03-22T00:04:21;95342.38;;;9.44;40.33
11124;BME280;5616;42.692;23.312;2024-03-22T00:06:49;95344.38;;;9.42;40.71
11124;BME280;5616;42.692;23.312;2024-03-22T00:09:16;95347.13;;;9.41;40.85
11124;BME280;5616;42.692;23.312;2024-03-22T00:11:42;95347.34;;;9.39;40.74
11124;BME280;5616;42.692;23.312;2024-03-22T00:14:08;95347.94;;;9.41;41.30
11124;BME280;5616;42.692;23.312;2024-03-22T00:16:34;95347.94;;;9.41;41.37
11124;BME280;5616;42.692;23.312;2024-03-22T00:19:00;95340.84;;;9.43;40.90
11124;BME280;5616;42.692;23.312;2024-03-22T00:21:25;95346.16;;;9.42;41.12
11124;BME280;5616;42.692;23.312;2024-03-22T00:23:51;95338.06;;;9.38;40.91
11124;BME280;5616;42.692;23.312;2024-03-22T00:26:16;95344.78;;;9.39;41.84
11124;BME280;5616;42.692;23.312;2024-03-22T00:28:42;95344.19;;;9.37;42.05
11124;BME280;5616;42.692;23.312;2024-03-22T00:31:10;95343.19;;;9.38;42.13
11124;BME280;5616;42.692;23.312;2024-03-22T00:33:36;95343.19;;;9.38;42.26
11124;BME280;5616;42.692;23.312;2024-03-22T00:36:02;95346.75;;;9.37;41.77
11124;BME280;5616;42.692;23.312;2024-03-22T00:38:27;95344.78;;;9.26;42.20
11124;BME280;5616;42.692;23.312;2024-03-22T00:40:53;95348.56;;;9.17;42.51
11124;BME280;5616;42.692;23.312;2024-03-22T00:43:20;95350.31;;;9.10;42.81
11124;BME280;5616;42.692;23.312;2024-03-22T00:45:46;95350.91;;;8.99;42.42
11124;BME280;5616;42.692;23.312;2024-03-22T00:48:11;95350.69;;;8.94;43.46
11124;BME280;5616;42.692;23.312;2024-03-22T00:50:37;95348.72;;;8.89;43.20
11124;BME280;5616;42.692;23.312;2024-03-22T00:53:02;95349.91;;;8.80;43.05
11124;BME280;5616;42.692;23.312;2024-03-22T00:55:29;95346.94;;;8.76;43.11
11124;BME280;5616;42.692;23.312;2024-03-22T00:57:54;95345.16;;;8.70;43.39
11124;BME280;5616;42.692;23.312;2024-03-22T01:00:20;95353.44;;;8.59;43.97
11124;BME280;5616;42.692;23.312;2024-03-22T01:02:45;95348.66;;;8.50;43.82
11124;BME280;5616;42.692;23.312;2024-03-22T01:05:11;95349.06;;;8.47;44.23
11124;BME280;5616;42.692;23.312;2024-03-22T01:07:37;95345.09;;;8.44;44.06
11124;BME280;5616;42.692;23.312;2024-03-22T01:10:03;95345.09;;;8.44;44.34
11124;BME280;5616;42.692;23.312;2024-03-22T01:12:29;95342.72;;;8.49;44.11
11124;BME280;5616;42.692;23.312;2024-03-22T01:14:55;95349.69;;;8.55;44.23
11124;BME280;5616;42.692;23.312;2024-03-22T01:17:20;95348.31;;;8.59;43.47
11124;BME280;5616;42.692;23.312;2024-03-22T01:19:46;95349.88;;;8.60;43.69
11124;BME280;5616;42.692;23.312;2024-03-22T01:22:11;95356.59;;;8.61;44.14
11124;BME280;5616;42.692;23.312;2024-03-22T01:24:37;95352.66;;;8.65;43.86
11124;BME280;5616;42.692;23.312;2024-03-22T01:27:02;95354.63;;;8.70;44.30
11124;BME280;5616;42.692;23.312;2024-03-22T01:29:28;95360.56;;;8.70;43.57
11124;BME280;5616;42.692;23.312;2024-03-22T01:31:58;95345.16;;;8.70;43.80
11124;BME280;5616;42.692;23.312;2024-03-22T01:34:23;95352.25;;;8.62;43.44
11124;BME280;5616;42.692;23.312;2024-03-22T01:36:49;95350.25;;;8.57;43.96
11124;BME280;5616;42.692;23.312;2024-03-22T01:39:15;95350.66;;;8.54;43.38
11124;BME280;5616;42.692;23.312;2024-03-22T01:41:41;95352.25;;;8.55;42.94
11124;BME280;5616;42.692;23.312;2024-03-22T01:44:06;95343.53;;;8.56;43.94
11124;BME280;5616;42.692;23.312;2024-03-22T01:46:32;95347.69;;;8.57;44.02
11124;BME280;5616;42.692;23.312;2024-03-22T01:48:57;95347.69;;;8.57;44.02
11124;BME280;5616;42.692;23.312;2024-03-22T01:51:23;95349.06;;;8.53;43.76
11124;BME280;5616;42.692;23.312;2024-03-22T01:53:49;95341.34;;;8.47;43.74
11124;BME280;5616;42.692;23.312;2024-03-22T01:56:14;95340.97;;;8.43;43.88
11124;BME280;5616;42.692;23.312;2024-03-22T01:58:40;95340.75;;;8.38;44.35
11124;BME280;5616;42.692;23.312;2024-03-22T02:01:06;95347.84;;;8.36;43.67
11124;BME280;5616;42.692;23.312;2024-03-22T02:03:31;95341.53;;;8.32;44.40
11124;BME280;5616;42.692;23.312;2024-03-22T02:05:57;95343.78;;;8.14;45.47
11124;BME280;5616;42.692;23.312;2024-03-22T02:08:22;95348.09;;;8.07;45.26
11124;BME280;5616;42.692;23.312;2024-03-22T02:10:48;95339.38;;;7.95;46.43
11124;BME280;5616;42.692;23.312;2024-03-22T02:13:13;95351.59;;;7.93;46.38
11124;BME280;5616;42.692;23.312;2024-03-22T02:15:39;95342.94;;;7.94;45.25
11124;BME280;5616;42.692;23.312;2024-03-22T02:18:04;95340.97;;;7.96;45.27
11124;BME280;5616;42.692;23.312;2024-03-22T02:20:30;95348.84;;;7.94;46.68
11124;BME280;5616;42.692;23.312;2024-03-22T02:22:56;95350.00;;;7.92;46.24
11124;BME280;5616;42.692;23.312;2024-03-22T02:25:21;95356.09;;;7.90;45.98
11124;BME280;5616;42.692;23.312;2024-03-22T02:27:47;95353.19;;;7.94;47.21
11124;BME280;5616;42.692;23.312;2024-03-22T02:30:16;95356.72;;;7.93;46.46
11124;BME280;5616;42.692;23.312;2024-03-22T02:32:42;95361.59;;;7.87;45.84
11124;BME280;5616;42.692;23.312;2024-03-22T02:35:07;95361.78;;;7.79;46.07
11124;BME280;5616;42.692;23.312;2024-03-22T02:37:33;95365.69;;;7.75;46.66
11124;BME280;5616;42.692;23.312;2024-03-22T02:39:59;95367.63;;;7.73;46.86
11124;BME280;5616;42.692;23.312;2024-03-22T02:42:24;95362.53;;;7.73;47.26
11124;BME280;5616;42.692;23.312;2024-03-22T02:44:49;95365.69;;;7.75;47.25
11124;BME280;5616;42.692;23.312;2024-03-22T02:47:15;95369.81;;;7.76;48.02
11124;BME280;5616;42.692;23.312;2024-03-22T02:49:41;95368.25;;;7.75;47.13
11124;BME280;5616;42.692;23.312;2024-03-22T02:52:06;95368.84;;;7.77;47.46
11124;BME280;5616;42.692;23.312;2024-03-22T02:54:32;95372.34;;;7.70;47.82
11124;BME280;5616;42.692;23.312;2024-03-22T02:56:57;95382.97;;;7.67;47.68
11124;BME280;5616;42.692;23.312;2024-03-22T02:59:26;95387.28;;;7.66;47.83
11124;BME280;5616;42.692;23.312;2024-03-22T03:01:52;95386.31;;;7.67;47.25
11124;BME280;5616;42.692;23.312;2024-03-22T03:04:17;95395.19;;;7.65;47.92
11124;BME280;5616;42.692;23.312;2024-03-22T03:06:43;95389.66;;;7.61;47.98
11124;BME280;5616;42.692;23.312;2024-03-22T03:09:11;95392.78;;;7.63;48.49
11124;BME280;5616;42.692;23.312;2024-03-22T03:11:39;95393.38;;;7.65;48.55
11124;BME280;5616;42.692;23.312;2024-03-22T03:14:05;95397.16;;;7.69;47.98
11124;BME280;5616;42.692;23.312;2024-03-22T03:16:30;95403.03;;;7.63;48.55
11124;BME280;5616;42.692;23.312;2024-03-22T03:18:56;95400.47;;;7.63;47.88
11124;BME280;5616;42.692;23.312;2024-03-22T03:21:21;95406.91;;;7.53;48.35
11124;BME280;5616;42.692;23.312;2024-03-22T03:23:47;95404.69;;;7.43;47.91
11124;BME280;5616;42.692;23.312;2024-03-22T03:26:12;95408.38;;;7.40;48.24
11124;BME280;5616;42.692;23.312;2024-03-22T03:28:38;95411.03;;;7.26;47.57
11124;BME280;5616;42.692;23.312;2024-03-22T03:31:04;95411.44;;;7.29;48.41
11124;BME280;5616;42.692;23.312;2024-03-22T03:33:30;95416.56;;;7.29;47.94
11124;BME280;5616;42.692;23.312;2024-03-22T03:35:55;95415.19;;;7.06;47.74
11124;BME280;5616;42.692;23.312;2024-03-22T03:38:21;95411.22;;;7.03;48.28
11124;BME280;5616;42.692;23.312;2024-03-22T03:40:46;95407.63;;;6.98;48.26
11124;BME280;5616;42.692;23.312;2024-03-22T03:43:12;95415.78;;;6.86;49.50
11124;BME280;5616;42.692;23.312;2024-03-22T03:45:37;95426.75;;;6.80;47.89
11124;BME280;5616;42.692;23.312;2024-03-22T03:48:03;95423.34;;;6.73;48.38
11124;BME280;5616;42.692;23.312;2024-03-22T03:50:29;95424.75;;;6.76;49.05
11124;BME280;5616;42.692;23.312;2024-03-22T03:52:54;95431.72;;;6.67;48.27
11124;BME280;5616;42.692;23.312;2024-03-22T03:55:20;95427.78;;;6.65;48.82
11124;BME280;5616;42.692;23.312;2024-03-22T03:57:46;95428.94;;;6.62;49.47
11124;BME280;5616;42.692;23.312;2024-03-22T04:00:11;95427.78;;;6.65;49.20
11124;BME280;5616;42.692;23.312;2024-03-22T04:02:37;95435.09;;;6.53;49.79
11124;BME280;5616;42.692;23.312;2024-03-22T04:05:03;95445.09;;;6.48;49.33
11124;BME280;5616;42.692;23.312;2024-03-22T04:07:28;95437.66;;;6.53;49.78
11124;BME280;5616;42.692;23.312;2024-03-22T04:09:54;95437.53;;;6.40;49.91
11124;BME280;5616;42.692;23.312;2024-03-22T04:12:20;95446.50;;;6.36;49.45
11124;BME280;5616;42.692;23.312;2024-03-22T04:14:45;95436.88;;;6.38;50.62
11124;BME280;5616;42.692;23.312;2024-03-22T04:17:11;95443.22;;;6.42;50.36
11124;BME280;5616;42.692;23.312;2024-03-22T04:19:36;95442.00;;;6.38;50.28
11124;BME280;5616;42.692;23.312;2024-03-22T04:22:02;95439.44;;;6.38;49.46
11124;BME280;5616;42.692;23.312;2024-03-22T04:24:27;95451.88;;;6.41;50.74
11124;BME280;5616;42.692;23.312;2024-03-22T04:26:53;95444.81;;;6.43;50.42
11124;BME280;5616;42.692;23.312;2024-03-22T04:29:18;95446.06;;;6.47;49.91
11124;BME280;5616;42.692;23.312;2024-03-22T04:31:44;95449.84;;;6.51;51.08
11124;BME280;5616;42.692;23.312;2024-03-22T04:34:09;95461.28;;;6.55;49.57
11124;BME280;5616;42.692;23.312;2024-03-22T04:36:35;95457.94;;;6.55;49.27
11124;BME280;5616;42.692;23.312;2024-03-22T04:39:01;95462.25;;;6.54;50.27
11124;BME280;5616;42.692;23.312;2024-03-22T04:41:26;95468.59;;;6.58;50.22
11124;BME280;5616;42.692;23.312;2024-03-22T04:43:52;95466.03;;;6.58;50.10
11124;BME280;5616;42.692;23.312;2024-03-22T04:46:17;95473.72;;;6.58;50.95
11124;BME280;5616;42.692;23.312;2024-03-22T04:48:43;95474.94;;;6.62;50.79
11124;BME280;5616;42.692;23.312;2024-03-22T04:51:09;95473.63;;;6.66;50.30
11124;BME280;5616;42.692;23.312;2024-03-22T04:53:34;95471.06;;;6.66;50.81
11124;BME280;5616;42.692;23.312;2024-03-22T04:56:00;95467.13;;;6.70;50.55
11124;BME280;5616;42.692;23.312;2024-03-22T04:58:25;95470.31;;;6.72;50.47
11124;BME280;5616;42.692;23.312;2024-03-22T05:00:56;95469.97;;;6.75;50.57
11124;BME280;5616;42.692;23.312;2024-03-22T05:03:22;95472.78;;;6.80;51.58
11124;BME280;5616;42.692;23.312;2024-03-22T05:05:49;95471.25;;;6.86;50.39
11124;BME280;5616;42.692;23.312;2024-03-22T05:08:15;95479.63;;;6.95;49.12
11124;BME280;5616;42.692;23.312;2024-03-22T05:10:40;95479.69;;;7.01;50.19
11124;BME280;5616;42.692;23.312;2024-03-22T05:13:06;95483.25;;;7.07;49.75
11124;BME280;5616;42.692;23.312;2024-03-22T05:15:31;95480.59;;;7.15;50.12
11124;BME280;5616;42.692;23.312;2024-03-22T05:17:57;95477.91;;;7.23;49.32
11124;BME280;5616;42.692;23.312;2024-03-22T05:20:23;95482.31;;;7.29;49.88
11124;BME280;5616;42.692;23.312;2024-03-22T05:22:49;95488.28;;;7.36;49.08
11124;BME280;5616;42.692;23.312;2024-03-22T05:25:14;95493.47;;;7.43;49.15
11124;BME280;5616;42.692;23.312;2024-03-22T05:27:41;95497.41;;;7.45;48.20
11124;BME280;5616;42.692;23.312;2024-03-22T05:30:10;95501.75;;;7.45;48.82
11124;BME280;5616;42.692;23.312;2024-03-22T05:32:36;95497.06;;;7.48;47.98
11124;BME280;5616;42.692;23.312;2024-03-22T05:35:01;95491.56;;;7.51;48.59
11124;BME280;5616;42.692;23.312;2024-03-22T05:37:27;95499.50;;;7.56;47.71
11124;BME280;5616;42.692;23.312;2024-03-22T05:39:52;95504.66;;;7.63;48.31
11124;BME280;5616;42.692;23.312;2024-03-22T05:42:18;95498.03;;;7.68;48.53
11124;BME280;5616;42.692;23.312;2024-03-22T05:44:47;95506.88;;;7.72;48.15
11124;BME280;5616;42.692;23.312;2024-03-22T05:47:13;95502.00;;;7.77;47.76
11124;BME280;5616;42.692;23.312;2024-03-22T05:49:38;95511.16;;;7.86;47.80
11124;BME280;5616;42.692;23.312;2024-03-22T05:52:04;95511.56;;;7.90;46.91
11124;BME280;5616;42.692;23.312;2024-03-22T05:54:29;95510.41;;;7.93;47.31
11124;BME280;5616;42.692;23.312;2024-03-22T05:56:55;95511.41;;;7.98;48.28
11124;BME280;5616;42.692;23.312;2024-03-22T05:59:21;95511.28;;;8.06;47.64
11124;BME280;5616;42.692;23.312;2024-03-22T06:01:46;95514.50;;;8.15;46.87
11124;BME280;5616;42.692;23.312;2024-03-22T06:04:12;95518.28;;;8.19;46.88
11124;BME280;5616;42.692;23.312;2024-03-22T06:06:37;95517.91;;;8.22;47.12
11124;BME280;5616;42.692;23.312;2024-03-22T06:09:03;95512.97;;;8.27;46.79
11124;BME280;5616;42.692;23.312;2024-03-22T06:11:32;95511.91;;;8.36;45.67
11124;BME280;5616;42.692;23.312;2024-03-22T06:13:57;95509.19;;;8.44;45.51
11124;BME280;5616;42.692;23.312;2024-03-22T06:16:23;95513.94;;;8.54;45.93
11124;BME280;5616;42.692;23.312;2024-03-22T06:18:48;95508.84;;;8.60;45.30
11124;BME280;5616;42.692;23.312;2024-03-22T06:21:14;95502.16;;;8.59;46.49
11124;BME280;5616;42.692;23.312;2024-03-22T06:23:40;95516.09;;;8.50;46.04
11124;BME280;5616;42.692;23.312;2024-03-22T06:26:06;95509.22;;;8.51;46.72
11124;BME280;5616;42.692;23.312;2024-03-22T06:28:32;95511.41;;;8.60;46.19
11124;BME280;5616;42.692;23.312;2024-03-22T06:30:58;95505.75;;;8.71;45.74
11124;BME280;5616;42.692;23.312;2024-03-22T06:33:23;95513.91;;;8.81;45.70
11124;BME280;5616;42.692;23.312;2024-03-22T06:35:49;95514.31;;;8.92;44.12
11124;BME280;5616;42.692;23.312;2024-03-22T06:38:14;95508.63;;;9.03;45.96
11124;BME280;5616;42.692;23.312;2024-03-22T06:40:40;95513.78;;;9.16;45.19
11124;BME280;5616;42.692;23.312;2024-03-22T06:43:06;95504.34;;;9.23;44.75
11124;BME280;5616;42.692;23.312;2024-03-22T06:45:31;95510.66;;;9.27;43.88
11124;BME280;5616;42.692;23.312;2024-03-22T06:47:57;95515.00;;;9.33;42.68
11124;BME280;5616;42.692;23.312;2024-03-22T06:50:22;95523.16;;;9.43;44.28
11124;BME280;5616;42.692;23.312;2024-03-22T06:52:55;95521.16;;;9.52;42.47
11124;BME280;5616;42.692;23.312;2024-03-22T06:55:21;95528.28;;;9.56;43.91
11124;BME280;5616;42.692;23.312;2024-03-22T06:57:47;95534.41;;;9.62;44.02
11124;BME280;5616;42.692;23.312;2024-03-22T07:00:13;95534.03;;;9.71;43.20
11124;BME280;5616;42.692;23.312;2024-03-22T07:02:39;95531.88;;;9.68;42.97
11124;BME280;5616;42.692;23.312;2024-03-22T07:05:06;95538.78;;;9.74;43.63
11124;BME280;5616;42.692;23.312;2024-03-22T07:07:32;95536.03;;;9.82;44.05
11124;BME280;5616;42.692;23.312;2024-03-22T07:09:58;95535.03;;;9.90;43.97
11124;BME280;5616;42.692;23.312;2024-03-22T07:12:23;95534.81;;;9.92;42.54
11124;BME280;5616;42.692;23.312;2024-03-22T07:14:49;95534.84;;;10.05;43.61
11124;BME280;5616;42.692;23.312;2024-03-22T07:17:14;95535.81;;;10.17;41.99
11124;BME280;5616;42.692;23.312;2024-03-22T07:19:40;95535.63;;;10.25;42.73
11124;BME280;5616;42.692;23.312;2024-03-22T07:22:06;95538.00;;;10.33;41.30
11124;BME280;5616;42.692;23.312;2024-03-22T07:24:32;95536.78;;;10.42;41.66
11124;BME280;5616;42.692;23.312;2024-03-22T07:26:57;95534.81;;;10.44;42.05
11124;BME280;5616;42.692;23.312;2024-03-22T07:29:23;95535.78;;;10.43;42.76
11124;BME280;5616;42.692;23.312;2024-03-22T07:31:48;95528.47;;;10.47;40.10
11124;BME280;5616;42.692;23.312;2024-03-22T07:34:14;95530.03;;;10.54;39.72
11124;BME280;5616;42.692;23.312;2024-03-22T07:36:40;95535.53;;;10.64;39.69
11124;BME280;5616;42.692;23.312;2024-03-22T07:39:06;95530.56;;;10.76;39.73
11124;BME280;5616;42.692;23.312;2024-03-22T07:41:32;95537.44;;;10.89;41.49
11124;BME280;5616;42.692;23.312;2024-03-22T07:44:02;95532.31;;;10.89;39.70
11124;BME280;5616;42.692;23.312;2024-03-22T07:46:28;95532.66;;;10.99;38.74
11124;BME280;5616;42.692;23.312;2024-03-22T07:48:53;95539.75;;;11.10;39.12
11124;BME280;5616;42.692;23.312;2024-03-22T07:51:22;95533.78;;;11.09;39.36
11124;BME280;5616;42.692;23.312;2024-03-22T07:53:47;95535.34;;;11.17;39.31
11124;BME280;5616;42.692;23.312;2024-03-22T07:56:13;95530.53;;;11.27;40.89
11124;BME280;5616;42.692;23.312;2024-03-22T07:58:41;95541.25;;;11.24;37.64
11124;BME280;5616;42.692;23.312;2024-03-22T08:01:06;95545.97;;;11.27;37.63
11124;BME280;5616;42.692;23.312;2024-03-22T08:03:32;95537.31;;;11.15;38.00
11124;BME280;5616;42.692;23.312;2024-03-22T08:05:57;95540.84;;;11.27;39.39
11124;BME280;5616;42.692;23.312;2024-03-22T08:08:23;95538.78;;;11.42;39.49
11124;BME280;5616;42.692;23.312;2024-03-22T08:10:48;95536.53;;;11.52;39.67
11124;BME280;5616;42.692;23.312;2024-03-22T08:13:14;95539.03;;;11.65;40.71
11124;BME280;5616;42.692;23.312;2024-03-22T08:15:40;95539.53;;;11.80;38.91
11124;BME280;5616;42.692;23.312;2024-03-22T08:18:06;95526.63;;;11.80;38.29
11124;BME280;5616;42.692;23.312;2024-03-22T08:20:31;95535.72;;;11.90;36.56
11124;BME280;5616;42.692;23.312;2024-03-22T08:22:59;95523.72;;;12.02;37.81
11124;BME280;5616;42.692;23.312;2024-03-22T08:25:24;95526.44;;;12.07;37.90
11124;BME280;5616;42.692;23.312;2024-03-22T08:27:50;95528.19;;;12.13;35.48
11124;BME280;5616;42.692;23.312;2024-03-22T08:30:18;95520.59;;;12.18;35.53
11124;BME280;5616;42.692;23.312;2024-03-22T08:32:43;95532.06;;;12.22;37.35
11124;BME280;5616;42.692;23.312;2024-03-22T08:35:09;95515.09;;;12.33;37.04
11124;BME280;5616;42.692;23.312;2024-03-22T08:37:34;95522.72;;;12.46;35.23
11124;BME280;5616;42.692;23.312;2024-03-22T08:40:00;95521.47;;;12.30;35.56
11124;BME280;5616;42.692;23.312;2024-03-22T08:42:25;95523.00;;;12.38;37.11
11124;BME280;5616;42.692;23.312;2024-03-22T08:44:51;95526.50;;;12.43;35.25
11124;BME280;5616;42.692;23.312;2024-03-22T08:47:16;95531.59;;;12.50;34.82
11124;BME280;5616;42.692;23.312;2024-03-22T08:49:42;95523.56;;;12.58;34.92
11124;BME280;5616;42.692;23.312;2024-03-22T08:52:09;95524.78;;;12.55;35.49
11124;BME280;5616;42.692;23.312;2024-03-22T08:54:35;95521.22;;;12.74;36.13
11124;BME280;5616;42.692;23.312;2024-03-22T08:57:00;95530.81;;;12.86;34.97
11124;BME280;5616;42.692;23.312;2024-03-22T08:59:27;95514.09;;;12.88;34.90
11124;BME280;5616;42.692;23.312;2024-03-22T09:01:52;95523.81;;;13.04;35.71
11124;BME280;5616;42.692;23.312;2024-03-22T09:04:17;95522.03;;;13.23;33.42
11124;BME280;5616;42.692;23.312;2024-03-22T09:06:43;95525.56;;;13.29;34.54
11124;BME280;5616;42.692;23.312;2024-03-22T09:09:09;95520.47;;;13.22;33.40
11124;BME280;5616;42.692;23.312;2024-03-22T09:11:34;95513.78;;;13.44;32.02
11124;BME280;5616;42.692;23.312;2024-03-22T09:14:00;95507.31;;;13.53;32.89
11124;BME280;5616;42.692;23.312;2024-03-22T09:16:25;95502.38;;;13.63;32.80
11124;BME280;5616;42.692;23.312;2024-03-22T09:18:51;95508.06;;;13.84;33.70
11124;BME280;5616;42.692;23.312;2024-03-22T09:21:16;95496.59;;;13.91;31.93
11124;BME280;5616;42.692;23.312;2024-03-22T09:23:42;95498.38;;;14.14;31.62
11124;BME280;5616;42.692;23.312;2024-03-22T09:26:07;95509.78;;;14.13;31.56
11124;BME280;5616;42.692;23.312;2024-03-22T09:28:33;95501.44;;;14.22;32.11
11124;BME280;5616;42.692;23.312;2024-03-22T09:31:06;95501.78;;;14.26;30.50
11124;BME280;5616;42.692;23.312;2024-03-22T09:33:35;95495.94;;;14.19;32.36
11124;BME280;5616;42.692;23.312;2024-03-22T09:36:02;95483.78;;;14.31;32.44
11124;BME280;5616;42.692;23.312;2024-03-22T09:38:27;95486.03;;;14.39;31.94
11124;BME280;5616;42.692;23.312;2024-03-22T09:40:53;95485.34;;;14.55;30.13
11124;BME280;5616;42.692;23.312;2024-03-22T09:43:22;95482.63;;;14.50;31.30
11124;BME280;5616;42.692;23.312;2024-03-22T09:45:51;95488.25;;;14.70;32.49
11124;BME280;5616;42.692;23.312;2024-03-22T09:48:18;95487.31;;;14.77;30.97
11124;BME280;5616;42.692;23.312;2024-03-22T09:50:48;95481.19;;;14.43;30.61
11124;BME280;5616;42.692;23.312;2024-03-22T09:53:19;95489.06;;;14.48;31.23
11124;BME280;5616;42.692;23.312;2024-03-22T09:55:54;95479.69;;;14.58;30.39
11124;BME280;5616;42.692;23.312;2024-03-22T09:58:25;95471.91;;;14.70;30.90
11124;BME280;5616;42.692;23.312;2024-03-22T10:00:50;95476.03;;;14.83;30.53
11124;BME280;5616;42.692;23.312;2024-03-22T10:03:16;95474.66;;;14.92;29.39
11124;BME280;5616;42.692;23.312;2024-03-22T10:05:42;95477.28;;;14.80;30.16
11124;BME280;5616;42.692;23.312;2024-03-22T10:08:07;95474.19;;;14.95;30.21
11124;BME280;5616;42.692;23.312;2024-03-22T10:10:33;95474.59;;;15.15;29.53
11124;BME280;5616;42.692;23.312;2024-03-22T10:13:03;95466.72;;;15.10;30.99
11124;BME280;5616;42.692;23.312;2024-03-22T10:15:30;95469.19;;;15.05;29.81
11124;BME280;5616;42.692;23.312;2024-03-22T10:17:58;95468.28;;;15.11;29.86
11124;BME280;5616;42.692;23.312;2024-03-22T10:20:24;95467.50;;;15.10;30.39
11124;BME280;5616;42.692;23.312;2024-03-22T10:22:57;95471.44;;;15.13;29.88
11124;BME280;5616;42.692;23.312;2024-03-22T10:25:24;95458.41;;;15.08;29.44
11124;BME280;5616;42.692;23.312;2024-03-22T10:27:50;95461.84;;;15.13;29.78
11124;BME280;5616;42.692;23.312;2024-03-22T10:30:16;95452.75;;;15.11;30.27
11124;BME280;5616;42.692;23.312;2024-03-22T10:32:43;95449.13;;;15.12;31.03
11124;BME280;5616;42.692;23.312;2024-03-22T10:35:12;95448.69;;;15.15;31.79
11124;BME280;5616;42.692;23.312;2024-03-22T10:37:39;95448.94;;;15.02;29.64
11124;BME280;5616;42.692;23.312;2024-03-22T10:40:04;95436.75;;;14.86;29.08
11124;BME280;5616;42.692;23.312;2024-03-22T10:42:34;95433.03;;;14.82;30.16
11124;BME280;5616;42.692;23.312;2024-03-22T10:45:01;95438.41;;;14.92;30.23
11124;BME280;5616;42.692;23.312;2024-03-22T10:47:30;95435.28;;;14.90;29.19
11124;BME280;5616;42.692;23.312;2024-03-22T10:50:07;95419.44;;;15.03;29.11
11124;BME280;5616;42.692;23.312;2024-03-22T10:52:59;95422.44;;;15.11;30.83
11124;BME280;5616;42.692;23.312;2024-03-22T10:55:30;95421.72;;;15.16;29.43
11124;BME280;5616;42.692;23.312;2024-03-22T10:57:57;95420.53;;;15.07;29.84
11124;BME280;5616;42.692;23.312;2024-03-22T11:00:29;95416.94;;;15.08;29.45
11124;BME280;5616;42.692;23.312;2024-03-22T11:02:55;95418.97;;;15.06;29.68
11124;BME280;5616;42.692;23.312;2024-03-22T11:05:21;95416.00;;;15.14;29.90
11124;BME280;5616;42.692;23.312;2024-03-22T11:07:47;95419.59;;;15.13;28.84
11124;BME280;5616;42.692;23.312;2024-03-22T11:10:13;95415.06;;;15.20;28.94
11124;BME280;5616;42.692;23.312;2024-03-22T11:12:40;95408.75;;;15.16;29.52
11124;BME280;5616;42.692;23.312;2024-03-22T11:15:06;95402.03;;;15.15;28.08
11124;BME280;5616;42.692;23.312;2024-03-22T11:17:31;95400.97;;;15.16;30.21
11124;BME280;5616;42.692;23.312;2024-03-22T11:19:57;95395.91;;;15.21;29.99
11124;BME280;5616;42.692;23.312;2024-03-22T11:22:23;95399.13;;;15.28;30.19
11124;BME280;5616;42.692;23.312;2024-03-22T11:24:50;95392.44;;;15.32;29.29
11124;BME280;5616;42.692;23.312;2024-03-22T11:27:15;95394.34;;;15.37;28.36
11124;BME280;5616;42.692;23.312;2024-03-22T11:29:41;95392.59;;;15.42;28.96
11124;BME280;5616;42.692;23.312;2024-03-22T11:32:09;95389.47;;;15.40;27.84
11124;BME280;5616;42.692;23.312;2024-03-22T11:34:36;95376.56;;;15.45;28.84
11124;BME280;5616;42.692;23.312;2024-03-22T11:37:03;95379.44;;;15.44;29.13
11124;BME280;5616;42.692;23.312;2024-03-22T11:39:29;95387.59;;;15.52;27.79
11124;BME280;5616;42.692;23.312;2024-03-22T11:41:54;95393.72;;;15.46;27.70
11124;BME280;5616;42.692;23.312;2024-03-22T11:44:22;95373.97;;;15.45;29.14
11124;BME280;5616;42.692;23.312;2024-03-22T11:46:48;95379.72;;;15.47;27.57
11124;BME280;5616;42.692;23.312;2024-03-22T11:49:13;95374.41;;;15.37;29.21
11124;BME280;5616;42.692;23.312;2024-03-22T11:51:39;95376.56;;;15.45;28.30
11124;BME280;5616;42.692;23.312;2024-03-22T11:54:05;95368.56;;;15.47;28.30
11124;BME280;5616;42.692;23.312;2024-03-22T11:56:34;95364.19;;;15.47;28.56
11124;BME280;5616;42.692;23.312;2024-03-22T11:59:00;95357.19;;;15.48;28.33
11124;BME280;5616;42.692;23.312;2024-03-22T12:01:28;95360.72;;;15.42;28.28
11124;BME280;5616;42.692;23.312;2024-03-22T12:03:53;95353.47;;;15.27;28.45
11124;BME280;5616;42.692;23.312;2024-03-22T12:06:20;95357.66;;;15.28;28.66
11124;BME280;5616;42.692;23.312;2024-03-22T12:08:46;95350.34;;;15.25;27.84
11124;BME280;5616;42.692;23.312;2024-03-22T12:11:12;95344.78;;;15.33;28.71
11124;BME280;5616;42.692;23.312;2024-03-22T12:13:38;95346.91;;;15.36;27.45
11124;BME280;5616;42.692;23.312;2024-03-22T12:16:04;95342.00;;;15.23;28.89
11124;BME280;5616;42.692;23.312;2024-03-22T12:18:30;95346.75;;;15.26;27.12
11124;BME280;5616;42.692;23.312;2024-03-22T12:20:55;95335.44;;;15.32;27.75
11124;BME280;5616;42.692;23.312;2024-03-22T12:23:21;95340.13;;;15.35;27.46
11124;BME280;5616;42.692;23.312;2024-03-22T12:25:46;95335.56;;;15.42;28.20
11124;BME280;5616;42.692;23.312;2024-03-22T12:28:12;95339.19;;;15.41;26.33
11124;BME280;5616;42.692;23.312;2024-03-22T12:30:38;95326.31;;;15.46;25.92
11124;BME280;5616;42.692;23.312;2024-03-22T12:33:04;95325.38;;;15.52;26.71
11124;BME280;5616;42.692;23.312;2024-03-22T12:35:33;95324.44;;;15.58;27.25
11124;BME280;5616;42.692;23.312;2024-03-22T12:37:59;95327.09;;;15.47;27.53
11124;BME280;5616;42.692;23.312;2024-03-22T12:40:25;95309.50;;;15.49;26.08
11124;BME280;5616;42.692;23.312;2024-03-22T12:42:51;95314.06;;;15.58;28.09
11124;BME280;5616;42.692;23.312;2024-03-22T12:45:17;95307.44;;;15.67;28.14
11124;BME280;5616;42.692;23.312;2024-03-22T12:47:42;95324.56;;;15.68;28.61
11124;BME280;5616;42.692;23.312;2024-03-22T12:50:08;95320.50;;;15.56;27.94
11124;BME280;5616;42.692;23.312;2024-03-22T12:52:34;95317.59;;;15.52;29.11
11124;BME280;5616;42.692;23.312;2024-03-22T12:55:00;95308.88;;;15.58;27.68
11124;BME280;5616;42.692;23.312;2024-03-22T12:57:26;95306.81;;;15.60;28.29
11124;BME280;5616;42.692;23.312;2024-03-22T12:59:51;95305.25;;;15.59;26.24